This is the latest recevied weather packets stored in our database for station/object OM6ACB-6. If no packets are shown the sender has not sent any weather packets the latest 10 day(s).
| Time | Temp. | Humidity | Pressure | Rain* | Wind** | Luminosity | Snow |
|---|---|---|---|---|---|---|---|
| 1777859632 | 0.56° C | 50% | 1018.8 hPa | 0 mm | - | - | - |
| 1777859032 | 0.56° C | 49% | 1018.8 hPa | 0 mm | - | - | - |
| 1777858432 | 0.56° C | 50% | 1018.8 hPa | 0 mm | - | - | - |
| 1777857832 | 1.11° C | 51% | 1018.9 hPa | 0 mm | - | - | - |
| 1777857231 | 1.11° C | 50% | 1018.8 hPa | 0 mm | - | - | - |
| 1777856631 | 1.11° C | 49% | 1018.8 hPa | 0 mm | - | - | - |
| 1777856031 | 1.11° C | 47% | 1018.8 hPa | 0 mm | - | - | - |
| 1777855430 | 1.11° C | 47% | 1018.8 hPa | 0 mm | - | - | - |
| 1777854830 | 1.11° C | 42% | 1018.8 hPa | 0 mm | - | - | - |
| 1777854230 | 1.67° C | 42% | 1019 hPa | 0 mm | - | - | - |
| 1777853630 | 1.67° C | 42% | 1019.1 hPa | 0 mm | - | - | - |
| 1777853029 | 1.67° C | 41% | 1019.1 hPa | 0 mm | - | - | - |
| 1777852429 | 2.22° C | 32% | 1019.2 hPa | 0 mm | - | - | - |
| 1777851829 | 2.78° C | 32% | 1019.4 hPa | 0 mm | - | - | - |
| 1777851228 | 2.78° C | 32% | 1019.4 hPa | 0 mm | - | - | - |
| 1777850628 | 3.33° C | 32% | 1019.4 hPa | 0 mm | - | - | - |
| 1777850028 | 3.33° C | 31% | 1019.5 hPa | 0 mm | - | - | - |
| 1777849428 | 3.33° C | 31% | 1019.6 hPa | 0 mm | - | - | - |
| 1777848827 | 3.89° C | 31% | 1019.7 hPa | 0 mm | - | - | - |
| 1777848227 | 3.89° C | 31% | 1019.7 hPa | 0 mm | - | - | - |
| 1777847627 | 4.44° C | 30% | 1019.8 hPa | 0 mm | - | - | - |
| 1777847026 | 4.44° C | 30% | 1019.8 hPa | 0 mm | - | - | - |
| 1777846426 | 4.44° C | 30% | 1019.8 hPa | 0 mm | - | - | - |
| 1777845826 | 3.89° C | 31% | 1019.8 hPa | 0 mm | - | - | - |
| 1777845225 | 5.56° C | 30% | 1020 hPa | 0 mm | - | - | - |
* Rain latest hour (hover to see other rain measurements)
** Current wind speed in m/s (hover to see current wind gust speed)